SouthEast Lincoln: Weather Underground Data


Davis Vantage Pro Historical Data
 
Daily Summary for November 17, 2018 Units:  English    Metric   Both
« Previous Day
Next Day »
Daily Weekly Monthly Yearly Custom
  Current: High: Low: Average:
Temperature: 22.9 °F 46.7 °F 22.9 °F 30 °F
Dew Point: 20.7 °F 37.0 °F 19.7 °F 25.6 °F
Humidity: 91% 91% 68% 84%
Wind Speed: 0.0mph 14.0mph 0.0mph 3.1mph
Wind Gust: 5.0mph 17.0mph - -
Wind:Calm - - WSW
Pressure: 30.46 in 30.47 in 30.02 in -
Precipitation: 0.05 in      
Historical Graphs
 
 
Tabular Data for November 17, 2018
Time Temperature Dew Point Pressure Wind Wind Speed Wind Gust Humidity Rainfall Rate (Hourly) solar
00:02 46.3 °F 36.7 °F 30.02 in Calm     69% 0.00 in 0.00 W/m2
00:07 46.3 °F 36.7 °F 30.02 in Calm     69% 0.00 in 0.00 W/m2
00:12 46.2 °F 36.6 °F 30.02 in Calm     69% 0.00 in 0.00 W/m2
00:17 46.1 °F 36.5 °F 30.02 in Calm     69% 0.00 in 0.00 W/m2
00:22 46.1 °F 36.9 °F 30.03 in Calm     70% 0.00 in 0.00 W/m2
00:27 46.1 °F 36.9 °F 30.03 in Calm     70% 0.00 in 0.00 W/m2
00:32 46.3 °F 36.7 °F 30.04 in Calm     69% 0.00 in 0.00 W/m2
00:37 46.4 °F 36.8 °F 30.04 in Calm   5.0 mph 69% 0.00 in 0.00 W/m2
00:42 46.6 °F 37.0 °F 30.04 in Calm     69% 0.00 in 0.00 W/m2
00:47 46.7 °F 36.7 °F 30.05 in NW 7.0 mph 8.0 mph 68% 0.00 in 0.00 W/m2
00:52 46.7 °F 36.7 °F 30.06 in Calm   7.0 mph 68% 0.00 in 0.00 W/m2
00:57 46.3 °F 36.7 °F 30.06 in NW 14.0 mph 14.0 mph 69% 0.00 in 0.00 W/m2
01:02 45.4 °F 36.6 °F 30.07 in WNW 9.0 mph 11.0 mph 71% 0.00 in 0.00 W/m2
01:07 44.4 °F 36.0 °F 30.07 in NNW 5.0 mph 5.0 mph 72% 0.00 in 0.00 W/m2
01:12 43.6 °F 35.9 °F 30.07 in Calm   6.0 mph 74% 0.00 in 0.00 W/m2
01:17 42.8 °F 35.4 °F 30.08 in Calm     75% 0.00 in 0.00 W/m2
01:22 41.8 °F 34.5 °F 30.08 in West 1.0 mph 13.0 mph 75% 0.00 in 0.00 W/m2
01:27 40.7 °F 33.7 °F 30.08 in North 6.0 mph 16.0 mph 76% 0.00 in 0.00 W/m2
01:32 39.8 °F 33.2 °F 30.08 in NNW 2.0 mph 6.0 mph 77% 0.00 in 0.00 W/m2
01:37 39.1 °F 32.8 °F 30.09 in NW 1.0 mph 11.0 mph 78% 0.00 in 0.00 W/m2
01:42 38.6 °F 33.0 °F 30.09 in Calm   5.0 mph 80% 0.00 in 0.00 W/m2
01:47 38.4 °F 32.8 °F 30.09 in Calm   1.0 mph 80% 0.00 in 0.00 W/m2
01:52 38.1 °F 32.8 °F 30.10 in NNW 2.0 mph 5.0 mph 81% 0.00 in 0.00 W/m2
01:57 37.7 °F 32.4 °F 30.10 in NNW 4.0 mph 11.0 mph 81% 0.00 in 0.00 W/m2
02:02 37.3 °F 32.3 °F 30.10 in NNE 2.0 mph 5.0 mph 82% 0.00 in 0.00 W/m2
02:07 37.0 °F 32.0 °F 30.11 in North 2.0 mph 10.0 mph 82% 0.00 in 0.00 W/m2
02:12 36.8 °F 32.1 °F 30.11 in NW 2.0 mph 2.0 mph 83% 0.00 in 0.00 W/m2
02:17 36.7 °F 32.0 °F 30.12 in Calm   6.0 mph 83% 0.00 in 0.00 W/m2
02:22 36.5 °F 31.8 °F 30.12 in NW 7.0 mph 15.0 mph 83% 0.00 in 0.00 W/m2
02:27 36.2 °F 31.5 °F 30.12 in NW 5.0 mph 5.0 mph 83% 0.00 in 0.00 W/m2
02:32 35.9 °F 31.2 °F 30.12 in North 3.0 mph 10.0 mph 83% 0.00 in 0.00 W/m2
02:37 35.5 °F 30.9 °F 30.12 in West 3.0 mph 4.0 mph 83% 0.00 in 0.00 W/m2
02:42 35.3 °F 31.0 °F 30.12 in NNE 2.0 mph 9.0 mph 84% 0.00 in 0.00 W/m2
02:47 35.2 °F 30.9 °F 30.13 in NNW 7.0 mph 8.0 mph 84% 0.00 in 0.00 W/m2
02:52 35.1 °F 30.8 °F 30.14 in NW 3.0 mph 6.0 mph 84% 0.00 in 0.00 W/m2
02:57 34.9 °F 30.6 °F 30.14 in North 3.0 mph 7.0 mph 84% 0.00 in 0.00 W/m2
03:02 34.7 °F 30.4 °F 30.14 in North 3.0 mph 5.0 mph 84% 0.00 in 0.00 W/m2
03:07 34.6 °F 30.3 °F 30.14 in NW 7.0 mph 7.0 mph 84% 0.00 in 0.00 W/m2
03:12 34.5 °F 30.5 °F 30.15 in West 4.0 mph 8.0 mph 85% 0.00 in 0.00 W/m2
03:17 34.4 °F 30.4 °F 30.16 in WNW 5.0 mph 9.0 mph 85% 0.00 in 0.00 W/m2
03:22 34.3 °F 30.3 °F 30.16 in WNW 7.0 mph 8.0 mph 85% 0.00 in 0.00 W/m2
03:27 34.2 °F 29.9 °F 30.16 in SW 2.0 mph 6.0 mph 84% 0.00 in 0.00 W/m2
03:32 34.0 °F 30.0 °F 30.16 in Calm   7.0 mph 85% 0.00 in 0.00 W/m2
03:37 33.9 °F 29.9 °F 30.17 in NNE 2.0 mph 5.0 mph 85% 0.00 in 0.00 W/m2
03:42 33.9 °F 29.9 °F 30.17 in ESE 2.0 mph 4.0 mph 85% 0.00 in 0.00 W/m2
03:47 33.7 °F 29.7 °F 30.17 in NW 2.0 mph 10.0 mph 85% 0.00 in 0.00 W/m2
03:52 33.6 °F 29.6 °F 30.17 in NW 4.0 mph 11.0 mph 85% 0.00 in 0.00 W/m2
03:57 33.5 °F 29.5 °F 30.17 in NW 8.0 mph 13.0 mph 85% 0.00 in 0.00 W/m2
04:02 33.4 °F 29.4 °F 30.17 in NW 2.0 mph 11.0 mph 85% 0.00 in 0.00 W/m2
04:07 33.3 °F 29.3 °F 30.17 in North 3.0 mph 7.0 mph 85% 0.00 in 0.00 W/m2
04:12 33.2 °F 29.2 °F 30.18 in NW 11.0 mph 12.0 mph 85% 0.00 in 0.00 W/m2
04:17 33.1 °F 29.1 °F 30.18 in NNW 4.0 mph 11.0 mph 85% 0.00 in 0.00 W/m2
04:22 32.9 °F 28.9 °F 30.19 in Calm   12.0 mph 85% 0.00 in 0.00 W/m2
04:27 32.8 °F 28.8 °F 30.19 in NNE 4.0 mph 12.0 mph 85% 0.00 in 0.00 W/m2
04:32 32.8 °F 28.8 °F 30.20 in NW 4.0 mph 6.0 mph 85% 0.00 in 0.00 W/m2
04:37 32.7 °F 28.7 °F 30.21 in North 2.0 mph 10.0 mph 85% 0.00 in 0.00 W/m2
04:42 32.6 °F 28.3 °F 30.21 in NW 9.0 mph 9.0 mph 84% 0.00 in 0.00 W/m2
04:47 32.6 °F 28.3 °F 30.21 in WNW 8.0 mph 11.0 mph 84% 0.00 in 0.00 W/m2
04:52 32.6 °F 28.3 °F 30.22 in NNW 6.0 mph 6.0 mph 84% 0.00 in 0.00 W/m2
04:57 32.5 °F 28.2 °F 30.22 in Calm   9.0 mph 84% 0.00 in 0.00 W/m2
05:02 32.5 °F 28.2 °F 30.22 in North 6.0 mph 13.0 mph 84% 0.00 in 0.00 W/m2
05:07 32.5 °F 28.2 °F 30.23 in WNW 3.0 mph 5.0 mph 84% 0.00 in 0.00 W/m2
05:12 32.4 °F 28.4 °F 30.23 in WNW 7.0 mph 9.0 mph 85% 0.00 in 0.00 W/m2
05:17 32.4 °F 28.4 °F 30.23 in SSE 2.0 mph 9.0 mph 85% 0.00 in 0.00 W/m2
05:22 32.4 °F 28.4 °F 30.24 in NNW 4.0 mph 14.0 mph 85% 0.00 in 0.00 W/m2
05:27 32.3 °F 28.3 °F 30.24 in North 4.0 mph 7.0 mph 85% 0.00 in 0.00 W/m2
05:32 32.2 °F 28.2 °F 30.25 in North 8.0 mph 16.0 mph 85% 0.00 in 0.00 W/m2
05:37 32.2 °F 28.5 °F 30.25 in WNW 1.0 mph 8.0 mph 86% 0.00 in 0.00 W/m2
05:42 32.2 °F 28.5 °F 30.25 in NW 1.0 mph 10.0 mph 86% 0.00 in 0.00 W/m2
05:47 32.1 °F 28.4 °F 30.25 in NNE 12.0 mph 12.0 mph 86% 0.00 in 0.00 W/m2
05:52 32.1 °F 28.4 °F 30.25 in East 10.0 mph 10.0 mph 86% 0.00 in 0.00 W/m2
05:57 32.1 °F 28.4 °F 30.26 in NE 8.0 mph 10.0 mph 86% 0.00 in 0.00 W/m2
06:02 32.1 °F 28.7 °F 30.26 in WNW 2.0 mph 4.0 mph 87% 0.00 in 0.00 W/m2
06:07 32.1 °F 28.7 °F 30.26 in NW 5.0 mph 13.0 mph 87% 0.00 in 0.00 W/m2
06:12 32.1 °F 28.7 °F 30.26 in SE 7.0 mph 11.0 mph 87% 0.00 in 0.00 W/m2
06:17 32.1 °F 28.7 °F 30.26 in NW 5.0 mph 14.0 mph 87% 0.00 in 0.00 W/m2
06:22 32.1 °F 28.7 °F 30.26 in SSE 11.0 mph 13.0 mph 87% 0.00 in 0.00 W/m2
06:27 32.0 °F 28.6 °F 30.26 in SE 5.0 mph 8.0 mph 87% 0.00 in 0.00 W/m2
06:32 31.9 °F 28.5 °F 30.27 in North 2.0 mph 6.0 mph 87% 0.00 in 0.00 W/m2
06:37 31.8 °F 28.4 °F 30.27 in NE 7.0 mph 12.0 mph 87% 0.00 in 0.00 W/m2
06:42 31.7 °F 28.3 °F 30.28 in NW 4.0 mph 10.0 mph 87% 0.00 in 0.00 W/m2
06:47 31.6 °F 28.2 °F 30.28 in ENE 11.0 mph 14.0 mph 87% 0.00 in 0.00 W/m2
06:52 31.5 °F 28.1 °F 30.28 in NW 7.0 mph 8.0 mph 87% 0.00 in 0.00 W/m2
06:57 31.4 °F 28.0 °F 30.28 in WNW 3.0 mph 8.0 mph 87% 0.00 in 0.00 W/m2
07:02 31.3 °F 27.9 °F 30.28 in NE 3.0 mph 7.0 mph 87% 0.00 in 0.00 W/m2
07:07 31.1 °F 27.7 °F 30.29 in North 2.0 mph 8.0 mph 87% 0.00 in 0.00 W/m2
07:12 30.8 °F 27.4 °F 30.29 in North 7.0 mph 8.0 mph 87% 0.00 in 0.00 W/m2
07:17 30.6 °F 27.2 °F 30.30 in WNW 5.0 mph 8.0 mph 87% 0.00 in 0.00 W/m2
07:22 30.4 °F 27.3 °F 30.30 in NNE 4.0 mph 9.0 mph 88% 0.00 in 0.00 W/m2
07:27 30.1 °F 26.7 °F 30.30 in West 7.0 mph 7.0 mph 87% 0.00 in 0.00 W/m2
07:32 29.8 °F 26.4 °F 30.31 in Calm   2.0 mph 87% 0.00 in 0.00 W/m2
07:37 29.6 °F 26.2 °F 30.31 in North 3.0 mph 11.0 mph 87% 0.00 in 0.00 W/m2
07:42 29.4 °F 26.0 °F 30.31 in North 1.0 mph 7.0 mph 87% 0.00 in 0.00 W/m2
07:47 29.2 °F 25.8 °F 30.31 in Calm   6.0 mph 87% 0.00 in 5.00 W/m2
07:52 29.2 °F 25.8 °F 30.32 in NW 1.0 mph 4.0 mph 87% 0.00 in 7.00 W/m2
07:57 29.1 °F 25.7 °F 30.33 in ESE 1.0 mph 10.0 mph 87% 0.00 in 7.00 W/m2
08:02 29.0 °F 25.6 °F 30.33 in North 7.0 mph 8.0 mph 87% 0.00 in 9.00 W/m2
08:07 28.8 °F 25.4 °F 30.33 in Calm   12.0 mph 87% 0.00 in 9.00 W/m2
08:12 28.7 °F 25.3 °F 30.33 in ENE 10.0 mph 13.0 mph 87% 0.00 in 11.00 W/m2
08:17 28.6 °F 25.2 °F 30.33 in NW 4.0 mph 10.0 mph 87% 0.00 in 12.00 W/m2
08:22 28.5 °F 25.1 °F 30.33 in Calm   7.0 mph 87% 0.00 in 14.00 W/m2
08:27 28.5 °F 25.1 °F 30.34 in Calm   2.0 mph 87% 0.00 in 16.00 W/m2
08:32 28.5 °F 25.1 °F 30.34 in NNE 6.0 mph 11.0 mph 87% 0.00 in 18.00 W/m2
08:37 28.5 °F 25.1 °F 30.35 in North 2.0 mph 6.0 mph 87% 0.00 in 18.00 W/m2
08:42 28.4 °F 25.0 °F 30.35 in West 5.0 mph 13.0 mph 87% 0.00 in 19.00 W/m2
08:47 28.4 °F 25.0 °F 30.35 in ENE 3.0 mph 10.0 mph 87% 0.00 in 19.00 W/m2
08:52 28.4 °F 25.0 °F 30.35 in ENE 1.0 mph 6.0 mph 87% 0.00 in 19.00 W/m2
08:57 28.3 °F 24.9 °F 30.35 in North 1.0 mph 8.0 mph 87% 0.00 in 21.00 W/m2
09:02 28.3 °F 24.9 °F 30.35 in NE 2.0 mph 3.0 mph 87% 0.00 in 25.00 W/m2
09:07 28.3 °F 24.9 °F 30.35 in NNW 5.0 mph 7.0 mph 87% 0.00 in 28.00 W/m2
09:12 28.3 °F 24.7 °F 30.35 in ENE 2.0 mph 10.0 mph 86% 0.00 in 28.00 W/m2
09:17 28.3 °F 24.7 °F 30.35 in North 2.0 mph 17.0 mph 86% 0.00 in 30.00 W/m2
09:22 28.3 °F 24.7 °F 30.35 in Calm   2.0 mph 86% 0.00 in 33.00 W/m2
09:27 28.3 °F 24.7 °F 30.36 in Calm   13.0 mph 86% 0.00 in 35.00 W/m2
09:32 28.2 °F 24.6 °F 30.36 in NNW 3.0 mph 11.0 mph 86% 0.00 in 42.00 W/m2
09:37 28.2 °F 24.6 °F 30.37 in NNW 1.0 mph 6.0 mph 86% 0.00 in 40.00 W/m2
09:42 28.3 °F 24.7 °F 30.37 in NNW 5.0 mph 14.0 mph 86% 0.00 in 46.00 W/m2
09:47 28.2 °F 24.3 °F 30.37 in NNW 7.0 mph 8.0 mph 85% 0.00 in 42.00 W/m2
09:52 28.2 °F 24.3 °F 30.38 in WNW 3.0 mph 7.0 mph 85% 0.00 in 46.00 W/m2
09:57 28.1 °F 23.9 °F 30.38 in ESE 6.0 mph 6.0 mph 84% 0.00 in 47.00 W/m2
10:02 28.1 °F 23.9 °F 30.39 in WNW 6.0 mph 6.0 mph 84% 0.00 in 53.00 W/m2
10:07 28.0 °F 23.8 °F 30.38 in NNW 6.0 mph 12.0 mph 84% 0.00 in 53.00 W/m2
10:12 28.0 °F 23.5 °F 30.39 in NW 4.0 mph 8.0 mph 83% 0.00 in 56.00 W/m2
10:17 27.9 °F 23.4 °F 30.40 in NNW 7.0 mph 15.0 mph 83% 0.00 in 65.00 W/m2
10:22 27.8 °F 23.3 °F 30.40 in NW 7.0 mph 7.0 mph 83% 0.00 in 76.00 W/m2
10:27 27.8 °F 23.3 °F 30.40 in North 3.0 mph 8.0 mph 83% 0.00 in 74.00 W/m2
10:32 27.9 °F 23.4 °F 30.40 in WNW 12.0 mph 12.0 mph 83% 0.00 in 76.00 W/m2
10:37 27.8 °F 23.3 °F 30.40 in NW 3.0 mph 11.0 mph 83% 0.00 in 81.00 W/m2
10:42 27.8 °F 23.0 °F 30.40 in North 10.0 mph 16.0 mph 82% 0.00 in 84.00 W/m2
10:47 27.7 °F 22.9 °F 30.40 in NW 3.0 mph 10.0 mph 82% 0.00 in 83.00 W/m2
10:52 27.7 °F 22.9 °F 30.41 in Calm     82% 0.00 in 69.00 W/m2
10:57 27.6 °F 22.8 °F 30.41 in Calm   1.0 mph 82% 0.00 in 70.00 W/m2
11:02 27.7 °F 22.9 °F 30.41 in North 3.0 mph 12.0 mph 82% 0.00 in 79.00 W/m2
11:07 27.5 °F 22.4 °F 30.41 in WNW 5.0 mph 8.0 mph 81% 0.00 in 81.00 W/m2
11:12 27.5 °F 22.4 °F 30.41 in Calm   2.0 mph 81% 0.00 in 83.00 W/m2
11:17 27.5 °F 22.4 °F 30.41 in NNW 7.0 mph 7.0 mph 81% 0.00 in 70.00 W/m2
11:22 27.2 °F 21.9 °F 30.41 in NW 9.0 mph 11.0 mph 80% 0.00 in 79.00 W/m2
11:27 26.7 °F 21.4 °F 30.41 in NNW 7.0 mph 17.0 mph 80% 0.00 in 84.00 W/m2
11:32 26.5 °F 21.2 °F 30.41 in North 8.0 mph 11.0 mph 80% 0.00 in 91.00 W/m2
11:37 26.5 °F 21.2 °F 30.41 in NNW 8.0 mph 9.0 mph 80% 0.00 in 98.00 W/m2
11:42 26.4 °F 21.1 °F 30.40 in NNE 4.0 mph 8.0 mph 80% 0.00 in 98.00 W/m2
11:47 26.5 °F 21.2 °F 30.41 in NNW 4.0 mph 4.0 mph 80% 0.00 in 123.00 W/m2
11:52 26.4 °F 21.1 °F 30.41 in East 2.0 mph 13.0 mph 80% 0.00 in 113.00 W/m2
11:57 26.5 °F 21.2 °F 30.41 in NW 9.0 mph 9.0 mph 80% 0.00 in 105.00 W/m2
12:02 26.4 °F 20.8 °F 30.41 in WNW 4.0 mph 14.0 mph 79% 0.00 in 105.00 W/m2
12:07 26.5 °F 20.9 °F 30.41 in ENE 3.0 mph 11.0 mph 79% 0.00 in 100.00 W/m2
12:12 26.6 °F 20.7 °F 30.41 in East 7.0 mph 7.0 mph 78% 0.00 in 98.00 W/m2
12:17 26.6 °F 20.7 °F 30.41 in Calm     78% 0.00 in 95.00 W/m2
12:22 26.8 °F 20.6 °F 30.41 in Calm   6.0 mph 77% 0.00 in 90.00 W/m2
12:27 26.7 °F 20.2 °F 30.41 in WNW 3.0 mph 7.0 mph 76% 0.00 in 76.00 W/m2
12:32 26.6 °F 20.1 °F 30.41 in NE 1.0 mph 7.0 mph 76% 0.00 in 83.00 W/m2
12:37 26.5 °F 20.0 °F 30.41 in Calm   2.0 mph 76% 0.00 in 76.00 W/m2
12:42 26.3 °F 19.8 °F 30.41 in Calm   2.0 mph 76% 0.00 in 79.00 W/m2
12:47 26.3 °F 19.8 °F 30.41 in ENE 5.0 mph 7.0 mph 76% 0.00 in 74.00 W/m2
12:52 26.2 °F 19.7 °F 30.41 in Calm     76% 0.00 in 70.00 W/m2
12:57 26.2 °F 19.7 °F 30.41 in ESE 1.0 mph 10.0 mph 76% 0.00 in 77.00 W/m2
13:02 26.3 °F 19.8 °F 30.41 in WNW 1.0 mph 10.0 mph 76% 0.00 in 90.00 W/m2
13:07 26.3 °F 19.8 °F 30.41 in NW 4.0 mph 15.0 mph 76% 0.00 in 102.00 W/m2
13:12 26.2 °F 20.3 °F 30.41 in NNW 4.0 mph 4.0 mph 78% 0.00 in 88.00 W/m2
13:17 26.1 °F 20.2 °F 30.41 in WNW 8.0 mph 8.0 mph 78% 0.00 in 90.00 W/m2
13:22 26.0 °F 20.4 °F 30.41 in Calm   5.0 mph 79% 0.00 in 93.00 W/m2
13:27 25.9 °F 20.3 °F 30.41 in Calm   4.0 mph 79% 0.00 in 102.00 W/m2
13:32 25.8 °F 20.5 °F 30.41 in North 3.0 mph 4.0 mph 80% 0.00 in 120.00 W/m2
13:37 25.8 °F 20.8 °F 30.41 in NW 4.0 mph 6.0 mph 81% 0.00 in 105.00 W/m2
13:42 25.6 °F 20.6 °F 30.41 in Calm   1.0 mph 81% 0.00 in 95.00 W/m2
13:47 25.5 °F 20.5 °F 30.41 in SE 12.0 mph 12.0 mph 81% 0.00 in 95.00 W/m2
13:52 25.4 °F 20.7 °F 30.41 in WNW 3.0 mph 5.0 mph 82% 0.00 in 97.00 W/m2
13:57 25.3 °F 20.9 °F 30.41 in Calm   6.0 mph 83% 0.00 in 90.00 W/m2
14:02 25.2 °F 20.8 °F 30.41 in Calm   8.0 mph 83% 0.00 in 91.00 W/m2
14:07 25.0 °F 20.6 °F 30.41 in Calm   7.0 mph 83% 0.00 in 93.00 W/m2
14:12 25.0 °F 20.9 °F 30.42 in NNE 13.0 mph 13.0 mph 84% 0.00 in 91.00 W/m2
14:17 24.8 °F 20.7 °F 30.42 in NW 2.0 mph 2.0 mph 84% 0.00 in 70.00 W/m2
14:22 24.7 °F 20.8 °F 30.42 in NNW 3.0 mph 6.0 mph 85% 0.00 in 67.00 W/m2
14:27 24.7 °F 21.1 °F 30.42 in Calm   4.0 mph 86% 0.00 in 77.00 W/m2
14:32 24.6 °F 21.0 °F 30.42 in ENE 6.0 mph 8.0 mph 86% 0.00 in 74.00 W/m2
14:37 24.3 °F 21.0 °F 30.42 in Calm   8.0 mph 87% 0.00 in 79.00 W/m2
14:42 24.2 °F 20.9 °F 30.42 in WNW 7.0 mph 7.0 mph 87% 0.00 in 83.00 W/m2
14:47 24.3 °F 21.3 °F 30.42 in Calm   8.0 mph 88% 0.00 in 58.00 W/m2
14:52 24.3 °F 21.3 °F 30.42 in Calm   1.0 mph 88% 0.00 in 54.00 W/m2
14:57 24.2 °F 21.2 °F 30.42 in NW 8.0 mph 8.0 mph 88% 0.00 in 56.00 W/m2
15:02 24.1 °F 21.1 °F 30.42 in Calm   4.0 mph 88% 0.00 in 54.00 W/m2
15:07 24.0 °F 21.0 °F 30.42 in Calm   1.0 mph 88% 0.00 in 60.00 W/m2
15:12 23.9 °F 21.1 °F 30.43 in Calm   5.0 mph 89% 0.01 in 60.00 W/m2
15:17 23.9 °F 21.1 °F 30.43 in Calm   2.0 mph 89% 0.01 in 63.00 W/m2
15:22 23.8 °F 21.0 °F 30.43 in NNW 1.0 mph 6.0 mph 89% 0.01 in 62.00 W/m2
15:27 23.8 °F 21.0 °F 30.43 in Calm   3.0 mph 89% 0.01 in 44.00 W/m2
15:32 23.7 °F 20.9 °F 30.43 in NNW 2.0 mph 5.0 mph 89% 0.01 in 42.00 W/m2
15:37 23.6 °F 20.8 °F 30.44 in Calm   8.0 mph 89% 0.01 in 37.00 W/m2
15:42 23.5 °F 20.7 °F 30.44 in Calm   3.0 mph 89% 0.02 in 33.00 W/m2
15:47 23.5 °F 20.7 °F 30.44 in NNE 3.0 mph 5.0 mph 89% 0.02 in 30.00 W/m2
15:52 23.5 °F 20.7 °F 30.44 in Calm   4.0 mph 89% 0.02 in 28.00 W/m2
15:57 23.5 °F 21.0 °F 30.44 in Calm     90% 0.02 in 26.00 W/m2
16:02 23.5 °F 21.0 °F 30.44 in NNE 3.0 mph 6.0 mph 90% 0.02 in 25.00 W/m2
16:07 23.4 °F 20.9 °F 30.45 in North 2.0 mph 5.0 mph 90% 0.02 in 19.00 W/m2
16:12 23.3 °F 20.8 °F 30.45 in Calm   1.0 mph 90% 0.02 in 19.00 W/m2
16:17 23.3 °F 20.8 °F 30.45 in NW 2.0 mph 9.0 mph 90% 0.02 in 19.00 W/m2
16:22 23.2 °F 20.7 °F 30.45 in Calm   5.0 mph 90% 0.02 in 16.00 W/m2
16:27 23.2 °F 20.7 °F 30.45 in Calm     90% 0.02 in 12.00 W/m2
16:32 23.2 °F 20.7 °F 30.45 in Calm     90% 0.02 in 11.00 W/m2
16:37 23.1 °F 20.6 °F 30.45 in Calm   1.0 mph 90% 0.02 in 11.00 W/m2
16:42 23.0 °F 20.5 °F 30.46 in Calm   1.0 mph 90% 0.01 in 7.00 W/m2
16:47 23.0 °F 20.5 °F 30.46 in Calm   1.0 mph 90% 0.01 in 5.00 W/m2
16:52 22.9 °F 20.4 °F 30.46 in Calm   1.0 mph 90% 0.01 in 0.00 W/m2
16:57 23.0 °F 20.5 °F 30.46 in Calm   2.0 mph 90% 0.02 in 0.00 W/m2
17:02 23.0 °F 20.5 °F 30.46 in Calm   2.0 mph 90% 0.02 in 0.00 W/m2
17:07 23.0 °F 20.5 °F 30.45 in NNW 5.0 mph 5.0 mph 90% 0.02 in 0.00 W/m2
17:12 23.0 °F 20.5 °F 30.45 in Calm   6.0 mph 90% 0.02 in 0.00 W/m2
17:17 23.0 °F 20.5 °F 30.45 in Calm   1.0 mph 90% 0.01 in 0.00 W/m2
17:22 23.0 °F 20.5 °F 30.46 in West 2.0 mph 4.0 mph 90% 0.01 in 0.00 W/m2
17:27 23.0 °F 20.5 °F 30.46 in Calm   1.0 mph 90% 0.01 in 0.00 W/m2
17:32 23.0 °F 20.5 °F 30.46 in NNE 1.0 mph 4.0 mph 90% 0.01 in 0.00 W/m2
17:37 23.0 °F 20.5 °F 30.46 in Calm     90% 0.01 in 0.00 W/m2
17:42 23.0 °F 20.8 °F 30.46 in Calm   2.0 mph 91% 0.02 in 0.00 W/m2
17:47 23.0 °F 20.8 °F 30.46 in Calm   1.0 mph 91% 0.02 in 0.00 W/m2
17:52 23.0 °F 20.8 °F 30.46 in Calm     91% 0.02 in 0.00 W/m2
17:57 23.0 °F 20.8 °F 30.46 in NNE 1.0 mph 5.0 mph 91% 0.01 in 0.00 W/m2
18:02 23.0 °F 20.8 °F 30.46 in Calm   2.0 mph 91% 0.01 in 0.00 W/m2
18:07 22.9 °F 20.7 °F 30.46 in Calm   1.0 mph 91% 0.01 in 0.00 W/m2
18:12 23.0 °F 20.8 °F 30.47 in Calm     91% 0.01 in 0.00 W/m2
18:17 22.9 °F 20.7 °F 30.46 in Calm   5.0 mph 91% 0.01 in 0.00 W/m2
SouthEast Lincoln Weather
Compliments of Weather Underground - 2.75 mb